Time;durP1;ratioP1;P1;durP2;ratioP2;P2;SDS_P1;SDS_P2;PMS_P1;PMS_P2;Temp;Humidity;BMP_temperature;BMP_pressure;BME280_temperature;BME280_humidity;BME280_pressure;Samples;Min_cycle;Max_cycle;Signal;HPM_P1;HPM_P2
2023/03/01 00:02:12;;;;;;;2.58;1.10;;;;;;;;;;5102393;27;20027;-77
2023/03/01 00:04:39;;;;;;;2.17;0.90;;;;;;;;;;5103223;27;20032;-78
2023/03/01 00:07:05;;;;;;;2.10;0.80;;;;;;;;;;5105096;27;20018;-77
2023/03/01 00:09:31;;;;;;;1.75;0.95;;;;;;;;;;5107395;27;20109;-77
2023/03/01 00:11:57;;;;;;;0.90;0.63;;;;;;;;;;5104219;27;20130;-77
2023/03/01 00:14:23;;;;;;;2.63;0.77;;;;;;;;;;5097524;27;20037;-77
2023/03/01 00:16:49;;;;;;;2.88;1.00;;;;;;;;;;5090752;27;20023;-78
2023/03/01 00:19:17;;;;;;;2.05;0.93;;;;;;;;;;5099433;27;20535;-78
2023/03/01 00:21:43;;;;;;;2.28;0.80;;;;;;;;;;5099817;27;20030;-78
2023/03/01 00:24:10;;;;;;;2.70;0.70;;;;;;;;;;5098242;27;20027;-78
2023/03/01 00:26:36;;;;;;;1.02;0.55;;;;;;;;;;5107655;27;20168;-78
2023/03/01 00:29:03;;;;;;;1.55;0.82;;;;;;;;;;5096888;27;20100;-78
2023/03/01 00:31:31;;;;;;;2.60;1.10;;;;;;;;;;5102079;27;20026;-78
2023/03/01 00:33:58;;;;;;;1.00;0.77;;;;;;;;;;5097139;27;20016;-79
2023/03/01 00:36:27;;;;;;;1.42;0.93;;;;;;;;;;5100919;27;20110;-79
2023/03/01 00:38:53;;;;;;;3.90;0.77;;;;;;;;;;5086916;28;20036;-78
2023/03/01 00:41:22;;;;;;;2.10;0.60;;;;;;;;;;5103855;27;20028;-78
2023/03/01 00:43:49;;;;;;;1.30;0.82;;;;;;;;;;5098659;28;20625;-78
2023/03/01 00:46:16;;;;;;;1.45;0.80;;;;;;;;;;5102632;27;20106;-78
2023/03/01 00:48:42;;;;;;;1.27;0.70;;;;;;;;;;5095424;27;20248;-78
2023/03/01 00:51:20;;;;;;;1.27;0.60;;;;;;;;;;5102912;27;20141;-78
2023/03/01 00:53:47;;;;;;;2.10;0.73;;;;;;;;;;5096910;27;20111;-78
2023/03/01 00:56:13;;;;;;;6.93;0.80;;;;;;;;;;5104235;27;20023;-78
2023/03/01 00:58:40;;;;;;;1.92;0.77;;;;;;;;;;5092963;27;20044;-78
2023/03/01 01:01:17;;;;;;;1.55;0.82;;;;;;;;;;5096972;27;20043;-78
2023/03/01 01:03:52;;;;;;;1.65;0.80;;;;;;;;;;5094693;27;20130;-77
2023/03/01 01:06:23;;;;;;;1.42;0.80;;;;;;;;;;5101090;28;20023;-78
2023/03/01 01:08:50;;;;;;;1.15;0.70;;;;;;;;;;5104298;28;20049;-78
2023/03/01 01:11:16;;;;;;;1.92;1.10;;;;;;;;;;5093587;28;20043;-78
2023/03/01 01:13:44;;;;;;;2.05;0.80;;;;;;;;;;5098440;28;20046;-78
2023/03/01 01:16:11;;;;;;;3.97;0.90;;;;;;;;;;5094461;28;20141;-78
2023/03/01 01:18:37;;;;;;;1.90;1.13;;;;;;;;;;5104678;28;20044;-78
2023/03/01 01:21:11;;;;;;;2.90;1.10;;;;;;;;;;5002294;28;20285;-78
2023/03/01 01:26:45;;;;;;;3.78;1.23;;;;;;;;;;4983669;28;20454;-76
2023/03/01 01:29:12;;;;;;;3.25;1.25;;;;;;;;;;5096645;28;20167;-76
2023/03/01 01:31:39;;;;;;;2.92;0.98;;;;;;;;;;5100162;28;20028;-76
2023/03/01 01:34:06;;;;;;;2.67;2.05;;;;;;;;;;5105796;27;20051;-76
2023/03/01 01:36:33;;;;;;;2.72;0.77;;;;;;;;;;5098578;28;20034;-76
2023/03/01 01:39:00;;;;;;;4.03;1.17;;;;;;;;;;5097184;28;20177;-77
2023/03/01 01:41:27;;;;;;;4.78;0.90;;;;;;;;;;5093939;28;20038;-76
2023/03/01 01:44:13;;;;;;;1.70;0.90;;;;;;;;;;5098813;28;20110;-76
2023/03/01 01:46:42;;;;;;;1.30;0.77;;;;;;;;;;5099757;28;20036;-76
2023/03/01 01:49:17;;;;;;;3.70;0.88;;;;;;;;;;5103680;28;20057;-76
2023/03/01 01:51:47;;;;;;;1.50;0.98;;;;;;;;;;5103015;27;20478;-76
2023/03/01 01:54:23;;;;;;;2.90;0.80;;;;;;;;;;5099371;28;20439;-76
2023/03/01 01:56:53;;;;;;;3.53;0.80;;;;;;;;;;5100094;27;20639;-76
2023/03/01 01:59:24;;;;;;;1.35;0.55;;;;;;;;;;5103248;27;20039;-76
2023/03/01 02:01:50;;;;;;;1.55;0.68;;;;;;;;;;5109360;27;20085;-76
2023/03/01 02:04:16;;;;;;;4.38;0.93;;;;;;;;;;5099023;27;20028;-76
2023/03/01 02:06:50;;;;;;;2.40;0.80;;;;;;;;;;5109493;27;20022;-76
2023/03/01 02:09:17;;;;;;;3.20;0.80;;;;;;;;;;5107619;27;20028;-76
2023/03/01 02:11:44;;;;;;;2.33;0.77;;;;;;;;;;5103155;27;20499;-76
2023/03/01 02:14:10;;;;;;;2.50;0.75;;;;;;;;;;5103142;27;20038;-76
2023/03/01 02:16:36;;;;;;;1.67;0.80;;;;;;;;;;5103987;27;20477;-75
2023/03/01 02:19:04;;;;;;;1.60;0.73;;;;;;;;;;5095444;27;20063;-76
2023/03/01 02:21:36;;;;;;;1.75;1.10;;;;;;;;;;5104970;27;20459;-76
2023/03/01 02:24:02;;;;;;;;;;;;;;;;;;5114609;27;20038;-76
2023/03/01 02:26:32;;;;;;;1.20;0.70;;;;;;;;;;5108353;27;20003;-76
2023/03/01 02:28:58;;;;;;;0.88;0.60;;;;;;;;;;5105059;27;20455;-76
2023/03/01 02:31:42;;;;;;;2.00;1.10;;;;;;;;;;5102185;27;20110;-76
2023/03/01 02:34:13;;;;;;;2.92;1.30;;;;;;;;;;5114985;27;20327;-76
2023/03/01 02:36:41;;;;;;;3.00;1.00;;;;;;;;;;5104549;28;20028;-76
2023/03/01 02:39:14;;;;;;;1.38;0.60;;;;;;;;;;5106435;27;20032;-76
2023/03/01 02:41:41;;;;;;;4.13;0.80;;;;;;;;;;5105835;27;20291;-76
2023/03/01 02:44:08;;;;;;;7.22;1.10;;;;;;;;;;5104111;27;20019;-76
2023/03/01 02:46:34;;;;;;;1.95;1.00;;;;;;;;;;5102320;27;20036;-76
2023/03/01 02:49:01;;;;;;;1.38;0.80;;;;;;;;;;5106837;28;20656;-76
2023/03/01 02:51:39;;;;;;;1.40;0.95;;;;;;;;;;5107058;27;20020;-76
2023/03/01 02:54:05;;;;;;;3.97;1.20;;;;;;;;;;5106244;27;20061;-76
2023/03/01 02:56:32;;;;;;;3.75;0.80;;;;;;;;;;5106852;27;20047;-76
2023/03/01 02:59:00;;;;;;;2.97;0.88;;;;;;;;;;5106873;27;20028;-76
2023/03/01 03:01:36;;;;;;;1.80;1.10;;;;;;;;;;5099095;27;20024;-76
2023/03/01 03:04:02;;;;;;;1.73;1.00;;;;;;;;;;5099926;27;20023;-76
2023/03/01 03:06:29;;;;;;;2.95;1.20;;;;;;;;;;5101597;27;20106;-76
2023/03/01 03:08:55;;;;;;;3.70;1.42;;;;;;;;;;5100806;27;20606;-76
2023/03/01 03:11:21;;;;;;;3.33;1.30;;;;;;;;;;5107309;27;20054;-76
2023/03/01 03:13:47;;;;;;;3.17;0.95;;;;;;;;;;5107880;27;20027;-76
2023/03/01 03:16:14;;;;;;;1.88;1.30;;;;;;;;;;5107691;27;20568;-76
2023/03/01 03:18:41;;;;;;;2.03;1.15;;;;;;;;;;5103871;27;20042;-76
2023/03/01 03:21:10;;;;;;;4.85;1.00;;;;;;;;;;5099838;28;20110;-76
2023/03/01 03:23:37;;;;;;;1.80;1.00;;;;;;;;;;5105910;27;20395;-76
2023/03/01 03:26:04;;;;;;;1.45;1.05;;;;;;;;;;5108053;27;20019;-76
2023/03/01 03:28:30;;;;;;;3.35;1.17;;;;;;;;;;5106397;27;20099;-76
2023/03/01 03:30:58;;;;;;;1.58;1.13;;;;;;;;;;5102185;28;20035;-76
2023/03/01 03:33:24;;;;;;;4.35;1.35;;;;;;;;;;5110676;27;20020;-77
2023/03/01 03:35:51;;;;;;;1.80;1.20;;;;;;;;;;5101286;28;20139;-76
2023/03/01 03:38:19;;;;;;;2.28;1.05;;;;;;;;;;5100627;28;20097;-76
2023/03/01 03:41:02;;;;;;;2.08;1.30;;;;;;;;;;5092986;28;20032;-76
2023/03/01 03:43:28;;;;;;;2.05;1.20;;;;;;;;;;5094399;28;20104;-77
2023/03/01 03:45:56;;;;;;;3.17;1.20;;;;;;;;;;5101407;27;20039;-76
2023/03/01 03:48:23;;;;;;;1.70;1.10;;;;;;;;;;5113220;27;20114;-76
2023/03/01 03:50:50;;;;;;;1.90;1.25;;;;;;;;;;5100894;28;20673;-76
2023/03/01 03:53:17;;;;;;;4.50;1.23;;;;;;;;;;5098065;28;20131;-76
2023/03/01 03:55:44;;;;;;;3.22;1.33;;;;;;;;;;5104126;27;20080;-76
2023/03/01 03:58:11;;;;;;;1.42;1.15;;;;;;;;;;5097669;28;20130;-76
2023/03/01 04:00:41;;;;;;;1.65;1.05;;;;;;;;;;5100739;28;20016;-76
2023/03/01 04:03:07;;;;;;;5.30;1.52;;;;;;;;;;5100529;27;20030;-76
2023/03/01 04:05:34;;;;;;;1.85;1.10;;;;;;;;;;5100631;28;20440;-76
2023/03/01 04:08:03;;;;;;;4.13;1.50;;;;;;;;;;5101019;27;20582;-76
2023/03/01 04:10:30;;;;;;;2.97;1.20;;;;;;;;;;5096342;27;20107;-76
2023/03/01 04:12:57;;;;;;;3.17;1.33;;;;;;;;;;5100727;28;20631;-76
2023/03/01 04:15:23;;;;;;;2.58;0.98;;;;;;;;;;5107752;27;20107;-76
2023/03/01 04:17:51;;;;;;;2.63;1.40;;;;;;;;;;5099195;28;20382;-76
2023/03/01 04:20:25;;;;;;;2.30;1.10;;;;;;;;;;5099967;28;20056;-77
2023/03/01 04:23:10;;;;;;;3.17;1.15;;;;;;;;;;5095779;28;20035;-76
2023/03/01 04:25:56;;;;;;;6.25;1.20;;;;;;;;;;5100521;28;20470;-76
2023/03/01 04:28:27;;;;;;;2.08;1.40;;;;;;;;;;5103303;27;20026;-76
2023/03/01 04:30:54;;;;;;;4.53;1.48;;;;;;;;;;5111867;27;20019;-77
2023/03/01 04:33:20;;;;;;;1.88;1.27;;;;;;;;;;5102710;27;20176;-76
2023/03/01 04:35:49;;;;;;;3.95;1.38;;;;;;;;;;5099872;28;20062;-78
2023/03/01 04:38:15;;;;;;;3.80;1.27;;;;;;;;;;5108085;27;20088;-76
2023/03/01 04:40:42;;;;;;;1.92;1.20;;;;;;;;;;5100273;28;20027;-76
2023/03/01 04:43:10;;;;;;;2.70;1.35;;;;;;;;;;5090360;28;20032;-77
2023/03/01 04:45:36;;;;;;;1.52;1.08;;;;;;;;;;5097907;27;20023;-76
2023/03/01 04:48:03;;;;;;;1.20;1.00;;;;;;;;;;5108770;27;20107;-76
2023/03/01 04:50:30;;;;;;;2.08;1.20;;;;;;;;;;5086449;28;20084;-76
2023/03/01 04:52:59;;;;;;;2.45;1.33;;;;;;;;;;5093039;27;20038;-76
2023/03/01 04:55:26;;;;;;;3.03;1.30;;;;;;;;;;5099963;28;20030;-76
2023/03/01 04:57:53;;;;;;;2.83;1.30;;;;;;;;;;5097566;28;20044;-76
2023/03/01 05:00:20;;;;;;;4.47;1.30;;;;;;;;;;5098579;28;20521;-77
2023/03/01 05:02:48;;;;;;;5.05;1.52;;;;;;;;;;5098461;28;20015;-76
2023/03/01 05:05:14;;;;;;;1.98;1.33;;;;;;;;;;5091231;28;20108;-76
2023/03/01 05:07:40;;;;;;;2.53;1.38;;;;;;;;;;5100769;27;20099;-76
2023/03/01 05:10:07;;;;;;;2.33;0.95;;;;;;;;;;5100376;28;20111;-76
2023/03/01 05:12:33;;;;;;;3.15;1.30;;;;;;;;;;5099264;28;20148;-76
2023/03/01 05:14:59;;;;;;;3.15;1.45;;;;;;;;;;5099291;28;20110;-76
2023/03/01 05:17:25;;;;;;;2.50;1.63;;;;;;;;;;5098160;28;20034;-77
2023/03/01 05:19:52;;;;;;;1.70;1.08;;;;;;;;;;5099685;28;20039;-76
2023/03/01 05:22:19;;;;;;;1.40;0.90;;;;;;;;;;5099865;28;20028;-76
2023/03/01 05:24:46;;;;;;;2.17;1.10;;;;;;;;;;5091687;28;20020;-76
2023/03/01 05:27:12;;;;;;;2.40;1.02;;;;;;;;;;5090290;28;20374;-76
2023/03/01 05:29:39;;;;;;;1.55;0.93;;;;;;;;;;5097766;28;20592;-76
2023/03/01 05:32:05;;;;;;;1.92;1.13;;;;;;;;;;5101984;28;20035;-76
2023/03/01 05:34:35;;;;;;;4.85;1.27;;;;;;;;;;5103651;28;20028;-76
2023/03/01 05:37:02;;;;;;;3.65;1.27;;;;;;;;;;5103310;28;20109;-76
2023/03/01 05:39:29;;;;;;;1.83;1.20;;;;;;;;;;5101649;27;20537;-76
2023/03/01 05:41:56;;;;;;;1.98;1.10;;;;;;;;;;5101922;28;20098;-76
2023/03/01 05:44:22;;;;;;;5.53;1.42;;;;;;;;;;5107945;27;20036;-76
2023/03/01 05:46:49;;;;;;;1.92;1.20;;;;;;;;;;5103334;28;20536;-76
2023/03/01 05:49:15;;;;;;;2.00;0.90;;;;;;;;;;5113737;27;20047;-75
2023/03/01 05:51:42;;;;;;;2.53;1.27;;;;;;;;;;5106110;27;20550;-76
2023/03/01 05:54:09;;;;;;;5.47;1.80;;;;;;;;;;5104135;28;20575;-76
2023/03/01 05:56:36;;;;;;;4.13;1.02;;;;;;;;;;5105304;28;20035;-76
2023/03/01 05:59:04;;;;;;;5.18;1.33;;;;;;;;;;5105110;27;20611;-76
2023/03/01 06:01:31;;;;;;;2.15;1.00;;;;;;;;;;5105751;28;20043;-76
2023/03/01 06:03:57;;;;;;;2.05;1.00;;;;;;;;;;5105295;28;20094;-77
2023/03/01 06:06:24;;;;;;;2.65;1.20;;;;;;;;;;5105140;28;20103;-79
2023/03/01 06:08:52;;;;;;;3.05;0.90;;;;;;;;;;5104764;28;20448;-76
2023/03/01 06:11:18;;;;;;;6.25;1.27;;;;;;;;;;5105162;28;20524;-76
2023/03/01 06:13:45;;;;;;;3.83;0.98;;;;;;;;;;5091483;28;20020;-76
2023/03/01 06:16:11;;;;;;;3.80;1.15;;;;;;;;;;5102891;28;20023;-76
2023/03/01 06:18:38;;;;;;;2.08;1.05;;;;;;;;;;5099594;28;20508;-76
2023/03/01 06:21:05;;;;;;;2.38;1.05;;;;;;;;;;5101201;28;20074;-77
2023/03/01 06:23:31;;;;;;;3.03;1.00;;;;;;;;;;5103958;28;20020;-77
2023/03/01 06:25:57;;;;;;;3.03;1.45;;;;;;;;;;5103293;28;20035;-76
2023/03/01 06:28:24;;;;;;;2.90;1.38;;;;;;;;;;5111322;27;20065;-78
2023/03/01 06:30:51;;;;;;;2.40;1.10;;;;;;;;;;5103381;28;20164;-75
2023/03/01 06:33:19;;;;;;;3.95;1.35;;;;;;;;;;5104915;28;20027;-76
2023/03/01 06:35:46;;;;;;;5.20;3.20;;;;;;;;;;5092445;28;20054;-76
2023/03/01 06:38:14;;;;;;;11.85;4.03;;;;;;;;;;5095844;27;20035;-78
2023/03/01 06:40:41;;;;;;;6.18;3.60;;;;;;;;;;5100784;27;20023;-78
2023/03/01 06:43:07;;;;;;;6.05;3.40;;;;;;;;;;5100193;28;20042;-78
2023/03/01 06:45:34;;;;;;;5.78;3.38;;;;;;;;;;5084574;28;20640;-77
2023/03/01 06:48:07;;;;;;;12.07;3.78;;;;;;;;;;5085520;28;20089;-78
2023/03/01 06:50:34;;;;;;;3.90;2.90;;;;;;;;;;5109023;27;20473;-78
2023/03/01 06:53:00;;;;;;;6.25;3.15;;;;;;;;;;5101106;28;20597;-78
2023/03/01 06:55:36;;;;;;;3.60;2.70;;;;;;;;;;5098943;28;20024;-79
2023/03/01 06:58:03;;;;;;;4.75;3.42;;;;;;;;;;5098508;28;20468;-78
2023/03/01 07:00:29;;;;;;;4.82;2.25;;;;;;;;;;5104940;27;20124;-78
2023/03/01 07:02:58;;;;;;;10.65;2.55;;;;;;;;;;5108773;27;20020;-76
2023/03/01 07:05:24;;;;;;;11.88;3.08;;;;;;;;;;5096732;28;20099;-78
2023/03/01 07:07:50;;;;;;;5.38;3.10;;;;;;;;;;5097693;28;20109;-79
2023/03/01 07:10:17;;;;;;;8.65;4.90;;;;;;;;;;5098748;27;20495;-79
2023/03/01 07:12:43;;;;;;;8.35;5.70;;;;;;;;;;5103911;28;20344;-79
2023/03/01 07:15:10;;;;;;;12.73;5.88;;;;;;;;;;5097650;28;20538;-79
2023/03/01 07:17:36;;;;;;;9.43;6.20;;;;;;;;;;5092749;28;20023;-79
2023/03/01 07:20:02;;;;;;;14.85;5.13;;;;;;;;;;5103407;28;20024;-78
2023/03/01 07:22:28;;;;;;;8.55;4.35;;;;;;;;;;5093773;28;20028;-78
2023/03/01 07:24:55;;;;;;;8.13;5.15;;;;;;;;;;5097270;27;20027;-79
2023/03/01 07:27:21;;;;;;;7.40;3.60;;;;;;;;;;5102738;27;20369;-78
2023/03/01 07:29:47;;;;;;;10.32;4.30;;;;;;;;;;5099793;28;20020;-78
2023/03/01 07:32:13;;;;;;;13.65;5.80;;;;;;;;;;5091446;28;20038;-78
2023/03/01 07:34:40;;;;;;;7.47;3.45;;;;;;;;;;5106114;27;20105;-78
2023/03/01 07:37:09;;;;;;;8.57;3.47;;;;;;;;;;5101912;27;20027;-79
2023/03/01 07:39:35;;;;;;;5.20;3.40;;;;;;;;;;5100927;28;20063;-78
2023/03/01 07:42:01;;;;;;;8.52;3.75;;;;;;;;;;5098007;28;20026;-79
2023/03/01 07:44:28;;;;;;;5.03;3.85;;;;;;;;;;5101010;27;20032;-79
2023/03/01 07:46:56;;;;;;;5.90;3.40;;;;;;;;;;5100315;27;20027;-77
2023/03/01 07:49:22;;;;;;;7.25;4.40;;;;;;;;;;5096119;27;20035;-76
2023/03/01 07:51:49;;;;;;;6.97;3.47;;;;;;;;;;5086063;28;20047;-75
2023/03/01 07:54:15;;;;;;;4.60;2.40;;;;;;;;;;5089495;28;20368;-75
2023/03/01 07:56:41;;;;;;;5.80;2.17;;;;;;;;;;5097629;28;20231;-75
2023/03/01 07:59:07;;;;;;;2.97;1.73;;;;;;;;;;5099777;28;20032;-78
2023/03/01 08:01:33;;;;;;;3.28;1.80;;;;;;;;;;5102760;28;20023;-77
2023/03/01 08:04:00;;;;;;;5.75;3.05;;;;;;;;;;5089511;28;20058;-77
2023/03/01 08:06:26;;;;;;;4.70;2.55;;;;;;;;;;5100126;28;20592;-77
2023/03/01 08:08:55;;;;;;;7.22;2.80;;;;;;;;;;5092757;27;20034;-77
2023/03/01 08:11:21;;;;;;;2.55;2.10;;;;;;;;;;5098053;28;20091;-77
2023/03/01 08:13:48;;;;;;;5.05;2.33;;;;;;;;;;5098705;28;20058;-76
2023/03/01 08:16:15;;;;;;;3.17;2.30;;;;;;;;;;5106157;27;20021;-76
2023/03/01 08:18:42;;;;;;;3.25;2.47;;;;;;;;;;5096871;28;20042;-77
2023/03/01 08:21:10;;;;;;;8.63;3.30;;;;;;;;;;5100803;28;20024;-77
2023/03/01 08:23:36;;;;;;;7.65;3.40;;;;;;;;;;5098620;27;20024;-77
2023/03/01 08:26:06;;;;;;;8.80;3.50;;;;;;;;;;5099113;28;20114;-78
2023/03/01 08:28:32;;;;;;;4.82;3.00;;;;;;;;;;5098277;28;20023;-76
2023/03/01 08:30:58;;;;;;;5.50;4.47;;;;;;;;;;5111171;27;20023;-77
2023/03/01 08:33:24;;;;;;;6.07;3.95;;;;;;;;;;5092934;28;20039;-77
2023/03/01 08:35:51;;;;;;;4.68;3.80;;;;;;;;;;5093931;28;20052;-77
2023/03/01 08:38:17;;;;;;;6.18;4.20;;;;;;;;;;5099909;28;20058;-77
2023/03/01 08:40:43;;;;;;;6.43;3.97;;;;;;;;;;5092789;28;20089;-78
2023/03/01 08:43:10;;;;;;;4.50;3.42;;;;;;;;;;5087161;28;20081;-77
2023/03/01 08:45:36;;;;;;;5.10;3.13;;;;;;;;;;5094560;28;20510;-76
2023/03/01 08:48:02;;;;;;;4.75;2.75;;;;;;;;;;5101164;28;20020;-76
2023/03/01 08:50:28;;;;;;;7.32;3.40;;;;;;;;;;5091534;28;20038;-77
2023/03/01 08:52:54;;;;;;;6.70;3.40;;;;;;;;;;5091510;28;20027;-77
2023/03/01 08:55:21;;;;;;;7.35;2.50;;;;;;;;;;5099300;28;20063;-77
2023/03/01 08:57:47;;;;;;;2.33;1.85;;;;;;;;;;5102788;27;20096;-76
2023/03/01 09:00:14;;;;;;;3.88;2.05;;;;;;;;;;5092717;27;20685;-76
2023/03/01 09:02:40;;;;;;;6.97;2.10;;;;;;;;;;5087911;28;20102;-77
2023/03/01 09:05:07;;;;;;;3.30;1.40;;;;;;;;;;5098091;28;20027;-77
2023/03/01 09:07:33;;;;;;;4.32;1.40;;;;;;;;;;5097892;28;20046;-77
2023/03/01 09:09:59;;;;;;;3.88;1.48;;;;;;;;;;5094477;28;20038;-75
2023/03/01 09:12:26;;;;;;;4.50;2.03;;;;;;;;;;5099302;28;20149;-77
2023/03/01 09:14:52;;;;;;;3.92;1.10;;;;;;;;;;5103558;28;20019;-77
2023/03/01 09:17:21;;;;;;;2.78;1.23;;;;;;;;;;5106021;27;20360;-79
2023/03/01 09:19:48;;;;;;;4.18;1.77;;;;;;;;;;5103090;28;20629;-77
2023/03/01 09:22:14;;;;;;;3.42;1.98;;;;;;;;;;5107310;28;20115;-76
2023/03/01 09:24:40;;;;;;;2.15;1.25;;;;;;;;;;5100741;28;20471;-77
2023/03/01 09:27:08;;;;;;;2.65;1.05;;;;;;;;;;5093461;28;20069;-76
2023/03/01 09:29:36;;;;;;;2.72;1.50;;;;;;;;;;5103260;28;20487;-76
2023/03/01 09:32:02;;;;;;;4.30;1.17;;;;;;;;;;5091124;28;20106;-76
2023/03/01 09:34:29;;;;;;;4.28;2.50;;;;;;;;;;5102119;28;20026;-76
2023/03/01 09:36:55;;;;;;;6.20;1.90;;;;;;;;;;5097727;28;20020;-78
2023/03/01 09:39:21;;;;;;;3.10;1.65;;;;;;;;;;5088856;28;20391;-76
2023/03/01 09:42:04;;;;;;;8.82;2.70;;;;;;;;;;5093465;28;20020;-77
2023/03/01 09:44:31;;;;;;;4.80;2.45;;;;;;;;;;5099936;28;20031;-76
2023/03/01 09:46:58;;;;;;;3.38;2.40;;;;;;;;;;5100948;28;20027;-77
2023/03/01 09:49:32;;;;;;;8.05;2.38;;;;;;;;;;5097996;28;20698;-77
2023/03/01 09:52:07;;;;;;;5.95;2.65;;;;;;;;;;5086087;28;20032;-76
2023/03/01 09:54:33;;;;;;;4.65;2.97;;;;;;;;;;5093966;28;20020;-76
2023/03/01 09:57:08;;;;;;;4.68;2.00;;;;;;;;;;5101329;28;20473;-76
2023/03/01 09:59:53;;;;;;;3.28;1.63;;;;;;;;;;5090535;28;20059;-77
2023/03/01 10:02:24;;;;;;;4.90;1.50;;;;;;;;;;5091474;28;20115;-76
2023/03/01 10:04:52;;;;;;;1.70;1.30;;;;;;;;;;5101937;28;20031;-76
2023/03/01 10:07:18;;;;;;;2.35;1.58;;;;;;;;;;5098738;27;20256;-77
2023/03/01 10:09:46;;;;;;;2.50;1.23;;;;;;;;;;5100066;28;20092;-75
2023/03/01 10:12:27;;;;;;;2.38;1.02;;;;;;;;;;5097089;28;20047;-76
2023/03/01 10:14:53;;;;;;;1.45;1.02;;;;;;;;;;5087553;28;20623;-76
2023/03/01 10:17:26;;;;;;;3.80;1.25;;;;;;;;;;5104611;27;20015;-81
2023/03/01 10:19:53;;;;;;;3.80;1.35;;;;;;;;;;5097186;28;20096;-80
2023/03/01 10:22:28;;;;;;;4.97;1.23;;;;;;;;;;5105221;28;20131;-84
2023/03/01 10:24:54;;;;;;;1.98;1.10;;;;;;;;;;5097646;27;20064;-81
2023/03/01 10:27:36;;;;;;;2.60;1.17;;;;;;;;;;5107626;27;20073;-80
2023/03/01 10:30:08;;;;;;;4.03;1.20;;;;;;;;;;5091955;28;20092;-82
2023/03/01 10:32:35;;;;;;;3.40;1.17;;;;;;;;;;5102775;27;20471;-83
2023/03/01 10:35:01;;;;;;;2.35;1.10;;;;;;;;;;5104265;27;20421;-80
2023/03/01 10:37:28;;;;;;;1.77;1.15;;;;;;;;;;5098021;28;20015;-79
2023/03/01 10:40:08;;;;;;;3.85;1.30;;;;;;;;;;5103091;27;20031;-81
2023/03/01 10:42:47;;;;;;;2.33;1.10;;;;;;;;;;5104951;27;20165;-81
2023/03/01 10:45:20;;;;;;;1.25;1.00;;;;;;;;;;5100978;27;20055;-81
2023/03/01 10:47:46;;;;;;;2.58;1.02;;;;;;;;;;5096204;28;20020;-77
2023/03/01 10:50:22;;;;;;;3.17;0.95;;;;;;;;;;5106012;27;20580;-81
2023/03/01 10:53:02;;;;;;;4.57;1.50;;;;;;;;;;5100428;27;20432;-80
2023/03/01 10:55:28;;;;;;;3.72;1.27;;;;;;;;;;5098030;27;20024;-81
2023/03/01 10:58:18;;;;;;;2.22;1.30;;;;;;;;;;5102490;28;20048;-76
2023/03/01 11:01:03;;;;;;;2.55;1.25;;;;;;;;;;5098826;28;20106;-81
2023/03/01 11:03:31;;;;;;;4.88;1.98;;;;;;;;;;5102040;27;20558;-77
2023/03/01 11:06:02;;;;;;;2.78;1.80;;;;;;;;;;5102618;27;20471;-77
2023/03/01 11:08:34;;;;;;;3.25;1.60;;;;;;;;;;5103933;28;20019;-78
2023/03/01 11:11:07;;;;;;;2.58;1.10;;;;;;;;;;5108278;27;20031;-78
2023/03/01 11:13:33;;;;;;;4.30;1.40;;;;;;;;;;5103726;28;20035;-78
2023/03/01 11:16:04;;;;;;;2.65;1.27;;;;;;;;;;5102246;27;20011;-78
2023/03/01 11:18:31;;;;;;;2.10;1.20;;;;;;;;;;5103558;28;20028;-78
2023/03/01 11:20:58;;;;;;;3.60;1.20;;;;;;;;;;5104039;27;20034;-80
2023/03/01 11:23:26;;;;;;;2.47;1.00;;;;;;;;;;5108513;27;20034;-83
2023/03/01 11:26:00;;;;;;;2.63;1.00;;;;;;;;;;5104151;27;20058;-80
2023/03/01 11:28:28;;;;;;;2.08;1.00;;;;;;;;;;5107539;27;20038;-79
2023/03/01 11:30:57;;;;;;;2.75;1.00;;;;;;;;;;5113044;27;20051;-78
2023/03/01 11:33:42;;;;;;;2.25;0.77;;;;;;;;;;5103026;28;20032;-78
2023/03/01 11:36:29;;;;;;;1.55;0.85;;;;;;;;;;5094926;28;20023;-83
2023/03/01 11:38:56;;;;;;;2.03;1.25;;;;;;;;;;5101794;28;20043;-80
2023/03/01 11:41:33;;;;;;;4.32;1.27;;;;;;;;;;5103129;28;20047;-83
2023/03/01 11:44:02;;;;;;;3.50;1.15;;;;;;;;;;5095293;27;20024;-81
2023/03/01 11:46:43;;;;;;;2.58;1.00;;;;;;;;;;5101127;27;20232;-82
2023/03/01 11:49:09;;;;;;;2.57;0.87;;;;;;;;;;5088275;28;20027;-77
2023/03/01 11:51:42;;;;;;;3.33;1.23;;;;;;;;;;5095731;27;20259;-80
2023/03/01 11:54:27;;;;;;;2.25;1.27;;;;;;;;;;5098223;28;20028;-79
2023/03/01 11:56:56;;;;;;;2.75;0.98;;;;;;;;;;5103565;27;20262;-76
2023/03/01 11:59:29;;;;;;;4.13;0.90;;;;;;;;;;5091757;28;20043;-81
2023/03/01 12:02:01;;;;;;;3.03;0.98;;;;;;;;;;5100165;27;20110;-82
2023/03/01 12:04:27;;;;;;;3.58;0.90;;;;;;;;;;5092216;27;20374;-81
2023/03/01 12:07:03;;;;;;;2.10;1.33;;;;;;;;;;5105647;27;20023;-82
2023/03/01 12:09:48;;;;;;;3.35;0.88;;;;;;;;;;5100788;28;20051;-80
2023/03/01 12:12:37;;;;;;;1.30;0.90;;;;;;;;;;5099571;27;20097;-82
2023/03/01 12:15:18;;;;;;;1.98;1.15;;;;;;;;;;5099212;28;20020;-81
2023/03/01 12:17:44;;;;;;;3.45;1.15;;;;;;;;;;5101393;28;20491;-78
2023/03/01 12:20:29;;;;;;;4.35;0.93;;;;;;;;;;5097488;28;20498;-84
2023/03/01 12:23:13;;;;;;;2.00;1.05;;;;;;;;;;5102934;27;20050;-80
2023/03/01 12:25:42;;;;;;;2.47;0.80;;;;;;;;;;5102076;28;20545;-77
2023/03/01 12:28:37;;;;;;;1.35;0.98;;;;;;;;;;5111776;27;20103;-77
2023/03/01 12:31:16;;;;;;;2.72;1.08;;;;;;;;;;5079815;27;20527;-82
2023/03/01 12:34:21;;;;;;;2.60;0.90;;;;;;;;;;5098789;27;20062;-76
2023/03/01 12:36:52;;;;;;;2.50;1.00;;;;;;;;;;5052523;28;20040;-76
2023/03/01 12:39:25;;;;;;;3.30;1.40;;;;;;;;;;5055084;28;20036;-76
2023/03/01 12:41:57;;;;;;;3.05;1.10;;;;;;;;;;5079950;28;20114;-76
2023/03/01 12:44:42;;;;;;;2.63;1.10;;;;;;;;;;5098323;28;20034;-77
2023/03/01 12:47:11;;;;;;;2.13;0.80;;;;;;;;;;5089040;28;20856;-78
2023/03/01 12:49:58;;;;;;;1.92;1.13;;;;;;;;;;5084471;28;20644;-78
2023/03/01 12:52:38;;;;;;;3.15;1.00;;;;;;;;;;5098941;27;20027;-77
2023/03/01 12:55:07;;;;;;;2.28;0.90;;;;;;;;;;5098048;28;20646;-76
2023/03/01 12:57:43;;;;;;;3.58;0.90;;;;;;;;;;5099020;27;20035;-78
2023/03/01 13:00:11;;;;;;;2.85;0.90;;;;;;;;;;5093937;27;20059;-78
2023/03/01 13:02:58;;;;;;;2.20;1.00;;;;;;;;;;5096749;27;20030;-75
2023/03/01 13:05:33;;;;;;;2.95;1.20;;;;;;;;;;5094865;28;20116;-76
2023/03/01 13:08:09;;;;;;;5.90;1.05;;;;;;;;;;5106897;27;20019;-75
2023/03/01 13:10:49;;;;;;;2.78;1.13;;;;;;;;;;5092086;27;20555;-77
2023/03/01 13:13:25;;;;;;;1.80;0.90;;;;;;;;;;5092841;28;20110;-75
2023/03/01 13:15:52;;;;;;;3.53;0.90;;;;;;;;;;5109088;28;20027;-75
2023/03/01 13:18:19;;;;;;;2.10;1.02;;;;;;;;;;5085342;28;20023;-78
2023/03/01 13:20:47;;;;;;;3.17;1.20;;;;;;;;;;5096813;28;20028;-76
2023/03/01 13:23:22;;;;;;;4.82;1.42;;;;;;;;;;5098721;28;20066;-75
2023/03/01 13:26:11;;;;;;;4.50;1.33;;;;;;;;;;5088978;28;20050;-76
2023/03/01 13:28:47;;;;;;;6.78;1.45;;;;;;;;;;5086706;28;20031;-76
2023/03/01 13:31:16;;;;;;;6.55;1.20;;;;;;;;;;5097757;28;20024;-77
2023/03/01 13:33:42;;;;;;;8.00;1.40;;;;;;;;;;5100675;28;20038;-79
2023/03/01 13:36:10;;;;;;;2.95;1.45;;;;;;;;;;5099317;28;20027;-75
2023/03/01 13:38:45;;;;;;;8.23;1.58;;;;;;;;;;5101582;28;20620;-77
2023/03/01 13:41:13;;;;;;;5.15;1.15;;;;;;;;;;5088423;28;20034;-77
2023/03/01 13:43:42;;;;;;;4.22;1.35;;;;;;;;;;5101749;28;20012;-78
2023/03/01 13:46:11;;;;;;;4.47;1.15;;;;;;;;;;5100641;28;20106;-78
2023/03/01 13:48:39;;;;;;;3.97;1.20;;;;;;;;;;5105875;28;20689;-78
2023/03/01 13:51:07;;;;;;;5.43;1.20;;;;;;;;;;5094361;28;20070;-78
2023/03/01 13:53:38;;;;;;;4.70;0.98;;;;;;;;;;5100788;27;20032;-78
2023/03/01 13:56:08;;;;;;;3.25;1.02;;;;;;;;;;5103730;27;20020;-78
2023/03/01 13:58:45;;;;;;;6.15;1.05;;;;;;;;;;5094128;28;20452;-79
2023/03/01 14:01:22;;;;;;;3.33;1.02;;;;;;;;;;5101213;27;20040;-79
2023/03/01 14:03:48;;;;;;;3.08;1.00;;;;;;;;;;5101421;27;20019;-79
2023/03/01 14:06:17;;;;;;;4.70;1.38;;;;;;;;;;5120323;27;20106;-78
2023/03/01 14:08:44;;;;;;;5.13;1.15;;;;;;;;;;5107664;27;20023;-77
2023/03/01 14:11:29;;;;;;;4.68;1.23;;;;;;;;;;5104987;28;20033;-78
2023/03/01 14:13:55;;;;;;;4.70;1.30;;;;;;;;;;5103425;28;20505;-78
2023/03/01 14:16:30;;;;;;;3.00;1.20;;;;;;;;;;5103183;27;20032;-80
2023/03/01 14:18:56;;;;;;;3.45;1.15;;;;;;;;;;5098703;28;20107;-79
2023/03/01 14:21:25;;;;;;;6.00;1.30;;;;;;;;;;5104874;28;20015;-80
2023/03/01 14:23:51;;;;;;;9.80;1.40;;;;;;;;;;5107561;27;20024;-78
2023/03/01 14:26:21;;;;;;;6.45;1.55;;;;;;;;;;5104370;28;20499;-78
2023/03/01 14:28:48;;;;;;;4.85;1.27;;;;;;;;;;5094927;28;20031;-79
2023/03/01 14:31:32;;;;;;;4.40;1.05;;;;;;;;;;5105612;27;20082;-79
2023/03/01 14:33:59;;;;;;;7.53;1.30;;;;;;;;;;5090490;28;20421;-77
2023/03/01 14:36:29;;;;;;;5.93;1.15;;;;;;;;;;5108328;27;20081;-80
2023/03/01 14:39:04;;;;;;;7.45;1.15;;;;;;;;;;5103935;27;20616;-78
2023/03/01 14:41:31;;;;;;;3.92;1.30;;;;;;;;;;5104468;28;20630;-78
2023/03/01 14:44:00;;;;;;;3.05;1.30;;;;;;;;;;5101797;27;20111;-78
2023/03/01 14:46:29;;;;;;;7.95;2.40;;;;;;;;;;5102574;28;20035;-79
2023/03/01 14:48:58;;;;;;;2.33;1.33;;;;;;;;;;5100936;28;20035;-79
2023/03/01 14:51:25;;;;;;;6.72;2.35;;;;;;;;;;5109817;27;20023;-79
2023/03/01 14:53:51;;;;;;;2.55;1.40;;;;;;;;;;5106590;27;20034;-78
2023/03/01 14:56:18;;;;;;;4.50;1.67;;;;;;;;;;5101239;28;20065;-78
2023/03/01 14:58:47;;;;;;;6.93;2.80;;;;;;;;;;5116304;27;20130;-78
2023/03/01 15:01:17;;;;;;;10.77;5.53;;;;;;;;;;5104770;27;20252;-77